Time;durP1;ratioP1;P1;durP2;ratioP2;P2;SDS_P1;SDS_P2;PMS_P1;PMS_P2;Temp;Humidity;BMP_temperature;BMP_pressure;BME280_temperature;BME280_humidity;BME280_pressure;Samples;Min_cycle;Max_cycle;Signal;HPM_P1;HPM_P2
2023/04/16 00:01:25;;;;;;;34.30;15.52;;;;;;;;;;5061285;28;20797;-71
2023/04/16 00:03:51;;;;;;;28.70;15.13;;;;;;;;;;5066714;28;20044;-70
2023/04/16 00:06:17;;;;;;;31.77;14.63;;;;;;;;;;5061976;28;20036;-70
2023/04/16 00:08:43;;;;;;;28.67;14.32;;;;;;;;;;5068656;28;20033;-70
2023/04/16 00:11:09;;;;;;;38.92;17.75;;;;;;;;;;5050660;28;20505;-70
2023/04/16 00:13:35;;;;;;;;;;;;;;;;;;5067109;28;20090;-70
2023/04/16 00:16:01;;;;;;;25.75;13.68;;;;;;;;;;5063186;28;19924;-70
2023/04/16 00:18:28;;;;;;;23.35;13.35;;;;;;;;;;5040469;28;20040;-70
2023/04/16 00:20:54;;;;;;;40.35;17.33;;;;;;;;;;5061215;28;20094;-70
2023/04/16 00:23:20;;;;;;;27.58;14.43;;;;;;;;;;5066661;28;20044;-70
2023/04/16 00:25:46;;;;;;;;;;;;;;;;;;5067318;28;20627;-71
2023/04/16 00:28:12;;;;;;;28.00;13.98;;;;;;;;;;5054550;28;19920;-71
2023/04/16 00:30:38;;;;;;;28.67;14.45;;;;;;;;;;5063735;28;20047;-71
2023/04/16 00:33:05;;;;;;;29.77;15.40;;;;;;;;;;5081544;28;20119;-70
2023/04/16 00:35:34;;;;;;;38.15;18.58;;;;;;;;;;5065883;28;20636;-70
2023/04/16 00:38:00;;;;;;;37.17;18.05;;;;;;;;;;5051806;28;20037;-70
2023/04/16 00:40:29;;;;;;;39.65;19.48;;;;;;;;;;5065145;28;21972;-70
2023/04/16 00:42:55;;;;;;;32.17;18.13;;;;;;;;;;5067812;28;20056;-70
2023/04/16 00:45:21;;;;;;;33.58;17.65;;;;;;;;;;5069583;28;20079;-69
2023/04/16 00:47:48;;;;;;;29.00;16.75;;;;;;;;;;5061833;28;20120;-70
2023/04/16 00:50:14;;;;;;;30.23;17.70;;;;;;;;;;5064081;28;20061;-69
2023/04/16 00:52:40;;;;;;;25.15;15.23;;;;;;;;;;5042701;28;20049;-71
2023/04/16 00:55:06;;;;;;;29.92;16.85;;;;;;;;;;5067213;28;20120;-70
2023/04/16 00:57:32;;;;;;;26.83;16.88;;;;;;;;;;5097429;28;20471;-69
2023/04/16 00:59:59;;;;;;;25.77;16.50;;;;;;;;;;5055971;28;20425;-69
2023/04/16 01:02:25;;;;;;;;;;;;;;;;;;5067124;28;20416;-69
2023/04/16 01:04:51;;;;;;;22.20;14.55;;;;;;;;;;5077833;28;20394;-69
2023/04/16 01:07:17;;;;;;;20.90;13.32;;;;;;;;;;5051912;28;20348;-69
2023/04/16 01:09:43;;;;;;;26.80;16.65;;;;;;;;;;5068295;28;20511;-69
2023/04/16 01:12:09;;;;;;;24.80;16.98;;;;;;;;;;5051699;28;20341;-69
2023/04/16 01:14:36;;;;;;;29.55;19.80;;;;;;;;;;5055608;28;20371;-69
2023/04/16 01:17:02;;;;;;;28.80;17.55;;;;;;;;;;5067119;28;20063;-69
2023/04/16 01:19:35;;;;;;;31.00;16.42;;;;;;;;;;5073789;28;20044;-69
2023/04/16 01:22:01;;;;;;;25.75;16.55;;;;;;;;;;5050313;28;20540;-69
2023/04/16 01:24:27;;;;;;;25.50;16.48;;;;;;;;;;5067195;28;20052;-69
2023/04/16 01:26:53;;;;;;;26.98;15.65;;;;;;;;;;5067803;28;20144;-70
2023/04/16 01:29:19;;;;;;;29.67;15.82;;;;;;;;;;5101755;28;20037;-71
2023/04/16 01:31:45;;;;;;;32.33;17.65;;;;;;;;;;5071139;28;20040;-72
2023/04/16 01:34:12;;;;;;;33.38;18.63;;;;;;;;;;5083679;28;20505;-73
2023/04/16 01:36:38;;;;;;;;;;;;;;;;;;5087679;28;20110;-72
2023/04/16 01:39:04;;;;;;;33.53;17.77;;;;;;;;;;5065345;28;19924;-73
2023/04/16 01:41:30;;;;;;;32.00;17.13;;;;;;;;;;5076725;28;20075;-72
2023/04/16 01:43:56;;;;;;;;;;;;;;;;;;5073707;28;20045;-72
2023/04/16 01:46:30;;;;;;;32.00;18.55;;;;;;;;;;5072139;28;19974;-72
2023/04/16 01:48:57;;;;;;;32.42;16.65;;;;;;;;;;5073367;28;20346;-72
2023/04/16 01:51:23;;;;;;;32.58;17.83;;;;;;;;;;5073749;28;20053;-73
2023/04/16 01:53:52;;;;;;;36.58;19.33;;;;;;;;;;5071818;28;20083;-72
2023/04/16 01:56:18;;;;;;;34.17;19.27;;;;;;;;;;5071679;28;20051;-72
2023/04/16 01:58:45;;;;;;;33.15;18.88;;;;;;;;;;5054817;28;20032;-69
2023/04/16 02:01:12;;;;;;;32.00;17.58;;;;;;;;;;5092001;28;20511;-69
2023/04/16 02:03:39;;;;;;;21.30;13.55;;;;;;;;;;5104415;28;20492;-69
2023/04/16 02:06:04;;;;;;;;;;;;;;;;;;5070443;28;20090;-70
2023/04/16 02:08:31;;;;;;;20.70;13.23;;;;;;;;;;5073056;28;19920;-69
2023/04/16 02:10:57;;;;;;;24.27;12.88;;;;;;;;;;5083139;28;20120;-69
2023/04/16 02:13:24;;;;;;;26.52;14.57;;;;;;;;;;5070112;28;20059;-71
2023/04/16 02:15:51;;;;;;;31.92;16.27;;;;;;;;;;5096656;28;20491;-73
2023/04/16 02:18:17;;;;;;;;;;;;;;;;;;5104387;28;20063;-72
2023/04/16 02:20:44;;;;;;;33.83;17.75;;;;;;;;;;5084636;28;20293;-72
2023/04/16 02:23:10;;;;;;;33.00;15.68;;;;;;;;;;5070126;28;20041;-72
2023/04/16 02:25:43;;;;;;;29.60;14.82;;;;;;;;;;5069432;28;20049;-72
2023/04/16 02:28:11;;;;;;;29.30;15.25;;;;;;;;;;5071238;28;20044;-72
2023/04/16 02:30:37;;;;;;;34.00;15.88;;;;;;;;;;5069832;28;20044;-72
2023/04/16 02:33:04;;;;;;;;;;;;;;;;;;5064835;28;20395;-72
2023/04/16 02:35:34;;;;;;;34.92;17.73;;;;;;;;;;5071291;28;20288;-72
2023/04/16 02:38:00;;;;;;;28.73;15.68;;;;;;;;;;5072237;28;20032;-72
2023/04/16 02:40:26;;;;;;;;;;;;;;;;;;5059382;28;20044;-72
2023/04/16 02:42:52;;;;;;;30.42;16.20;;;;;;;;;;5102127;28;19928;-72
2023/04/16 02:45:18;;;;;;;;;;;;;;;;;;5072782;28;20039;-73
2023/04/16 02:47:45;;;;;;;31.48;17.65;;;;;;;;;;5068672;28;20300;-72
2023/04/16 02:50:11;;;;;;;32.55;17.73;;;;;;;;;;5067737;28;20153;-72
2023/04/16 02:52:37;;;;;;;34.35;18.90;;;;;;;;;;5069419;28;20577;-73
2023/04/16 02:55:03;;;;;;;30.90;16.33;;;;;;;;;;5070239;28;20050;-73
2023/04/16 02:57:29;;;;;;;26.75;16.30;;;;;;;;;;5053385;28;20433;-73
2023/04/16 02:59:55;;;;;;;25.10;13.98;;;;;;;;;;5103994;28;20136;-73
2023/04/16 03:02:21;;;;;;;37.53;17.88;;;;;;;;;;5070010;28;20114;-73
2023/04/16 03:04:47;;;;;;;27.55;16.10;;;;;;;;;;5068894;28;20067;-73
2023/04/16 03:07:13;;;;;;;32.17;17.40;;;;;;;;;;5066824;28;20048;-72
2023/04/16 03:09:40;;;;;;;33.40;17.40;;;;;;;;;;5070346;28;20036;-72
2023/04/16 03:12:06;;;;;;;35.28;17.30;;;;;;;;;;5070103;28;20091;-73
2023/04/16 03:14:32;;;;;;;30.77;17.55;;;;;;;;;;5070465;28;20110;-72
2023/04/16 03:16:58;;;;;;;34.53;17.45;;;;;;;;;;5070054;28;20093;-72
2023/04/16 03:19:24;;;;;;;31.30;17.83;;;;;;;;;;5070027;28;20907;-72
2023/04/16 03:21:50;;;;;;;;;;;;;;;;;;5069451;28;20048;-73
2023/04/16 03:24:16;;;;;;;31.33;16.83;;;;;;;;;;5069292;28;19916;-72
2023/04/16 03:26:42;;;;;;;33.75;17.50;;;;;;;;;;5067783;28;20120;-72
2023/04/16 03:29:08;;;;;;;34.67;17.35;;;;;;;;;;5067760;28;20062;-73
2023/04/16 03:31:35;;;;;;;39.67;18.70;;;;;;;;;;5058035;28;20080;-72
2023/04/16 03:34:01;;;;;;;32.50;15.80;;;;;;;;;;5061936;28;20379;-72
2023/04/16 03:36:27;;;;;;;31.52;15.85;;;;;;;;;;5052609;28;20044;-72
2023/04/16 03:38:53;;;;;;;37.83;16.88;;;;;;;;;;5065832;28;20186;-72
2023/04/16 03:41:19;;;;;;;33.63;16.88;;;;;;;;;;5103248;28;20047;-72
2023/04/16 03:43:45;;;;;;;35.72;15.90;;;;;;;;;;5052832;28;20198;-72
2023/04/16 03:46:11;;;;;;;25.33;12.70;;;;;;;;;;5077194;28;20037;-72
2023/04/16 03:48:37;;;;;;;29.20;13.35;;;;;;;;;;5046327;28;20130;-72
2023/04/16 03:51:03;;;;;;;36.80;16.38;;;;;;;;;;5073584;28;20048;-72
2023/04/16 03:53:29;;;;;;;32.75;14.68;;;;;;;;;;5067515;28;20045;-72
2023/04/16 03:55:55;;;;;;;23.23;12.45;;;;;;;;;;5068965;28;20392;-72
2023/04/16 03:58:21;;;;;;;38.83;15.35;;;;;;;;;;5068622;28;20052;-72
2023/04/16 04:00:47;;;;;;;36.13;14.55;;;;;;;;;;5063856;28;20036;-72
2023/04/16 04:03:17;;;;;;;31.15;14.50;;;;;;;;;;5066697;28;20043;-72
2023/04/16 04:05:43;;;;;;;32.30;15.27;;;;;;;;;;5067508;28;20414;-72
2023/04/16 04:08:09;;;;;;;27.35;14.20;;;;;;;;;;5068713;28;20041;-72
2023/04/16 04:10:35;;;;;;;25.50;12.93;;;;;;;;;;5068203;28;20086;-72
2023/04/16 04:13:02;;;;;;;29.40;14.45;;;;;;;;;;5068408;28;20554;-72
2023/04/16 04:15:29;;;;;;;27.05;13.05;;;;;;;;;;5049953;28;20036;-72
2023/04/16 04:17:55;;;;;;;31.33;15.35;;;;;;;;;;5071374;28;20915;-72
2023/04/16 04:20:21;;;;;;;35.17;16.33;;;;;;;;;;5071130;28;20052;-73
2023/04/16 04:22:47;;;;;;;24.63;12.48;;;;;;;;;;5075496;28;20505;-72
2023/04/16 04:25:13;;;;;;;22.95;12.20;;;;;;;;;;5066637;28;20040;-72
2023/04/16 04:27:40;;;;;;;19.92;10.32;;;;;;;;;;5069907;28;20071;-72
2023/04/16 04:30:06;;;;;;;15.57;8.55;;;;;;;;;;5067523;28;20078;-72
2023/04/16 04:32:32;;;;;;;;;;;;;;;;;;5074979;28;20509;-72
2023/04/16 04:34:59;;;;;;;29.20;12.43;;;;;;;;;;5070921;28;19924;-72
2023/04/16 04:37:25;;;;;;;34.45;14.32;;;;;;;;;;5076303;28;20127;-72
2023/04/16 04:39:51;;;;;;;28.95;13.15;;;;;;;;;;5068497;28;20052;-71
2023/04/16 04:42:18;;;;;;;29.85;14.85;;;;;;;;;;5068438;28;20056;-72
2023/04/16 04:44:44;;;;;;;30.23;15.18;;;;;;;;;;5076588;28;20376;-72
2023/04/16 04:47:11;;;;;;;29.35;13.98;;;;;;;;;;5052269;28;20048;-72
2023/04/16 04:49:37;;;;;;;30.27;14.13;;;;;;;;;;5082410;28;20044;-72
2023/04/16 04:52:03;;;;;;;23.48;13.15;;;;;;;;;;5077483;28;20166;-72
2023/04/16 04:54:30;;;;;;;24.00;14.30;;;;;;;;;;5068775;28;20040;-71
2023/04/16 04:56:56;;;;;;;22.05;12.15;;;;;;;;;;5061816;28;20045;-72
2023/04/16 04:59:22;;;;;;;29.15;13.48;;;;;;;;;;5032060;28;20048;-72
2023/04/16 05:01:49;;;;;;;19.90;11.00;;;;;;;;;;5053378;28;20511;-72
2023/04/16 05:04:15;;;;;;;22.08;11.73;;;;;;;;;;5068044;28;20033;-72
2023/04/16 05:06:41;;;;;;;;;;;;;;;;;;5071929;28;20044;-72
2023/04/16 05:09:10;;;;;;;17.23;10.70;;;;;;;;;;5068057;28;20007;-69
2023/04/16 05:11:37;;;;;;;22.73;13.05;;;;;;;;;;5066359;28;20106;-69
2023/04/16 05:14:03;;;;;;;20.77;12.18;;;;;;;;;;5072475;28;20414;-69
2023/04/16 05:16:29;;;;;;;18.45;10.93;;;;;;;;;;5092275;28;20041;-69
2023/04/16 05:18:56;;;;;;;15.75;10.18;;;;;;;;;;5057803;28;20479;-69
2023/04/16 05:21:22;;;;;;;20.88;12.82;;;;;;;;;;5072784;28;20147;-69
2023/04/16 05:23:48;;;;;;;18.00;11.30;;;;;;;;;;5070323;28;20076;-69
2023/04/16 05:26:15;;;;;;;17.05;9.88;;;;;;;;;;5069325;28;20036;-69
2023/04/16 05:28:41;;;;;;;19.75;11.02;;;;;;;;;;5070547;28;20128;-69
2023/04/16 05:31:07;;;;;;;15.05;9.70;;;;;;;;;;5069474;28;20648;-69
2023/04/16 05:33:33;;;;;;;16.90;9.70;;;;;;;;;;5071195;28;20376;-69
2023/04/16 05:35:59;;;;;;;13.93;9.00;;;;;;;;;;5038755;28;20450;-69
2023/04/16 05:38:25;;;;;;;12.23;9.13;;;;;;;;;;5071677;28;20483;-69
2023/04/16 05:40:51;;;;;;;12.20;8.45;;;;;;;;;;5050618;28;20136;-69
2023/04/16 05:43:17;;;;;;;12.02;8.40;;;;;;;;;;5063934;28;20079;-69
2023/04/16 05:45:43;;;;;;;;;;;;;;;;;;5073283;28;20036;-70
2023/04/16 05:48:09;;;;;;;14.10;8.63;;;;;;;;;;5069587;28;20307;-70
2023/04/16 05:50:36;;;;;;;14.02;8.90;;;;;;;;;;5070363;28;20060;-69
2023/04/16 05:53:02;;;;;;;18.63;10.05;;;;;;;;;;5064998;28;20555;-69
2023/04/16 05:55:28;;;;;;;;;;;;;;;;;;5062808;28;20108;-69
2023/04/16 05:57:54;;;;;;;22.63;11.82;;;;;;;;;;5089495;28;20268;-69
2023/04/16 06:00:20;;;;;;;20.00;10.68;;;;;;;;;;5064977;28;20045;-69
2023/04/16 06:02:46;;;;;;;27.83;12.93;;;;;;;;;;5053867;28;20479;-69
2023/04/16 06:05:13;;;;;;;20.50;12.18;;;;;;;;;;5070847;28;20048;-69
2023/04/16 06:07:39;;;;;;;27.63;13.88;;;;;;;;;;5053849;28;20063;-69
2023/04/16 06:10:05;;;;;;;34.50;14.65;;;;;;;;;;5068224;28;20044;-69
2023/04/16 06:12:31;;;;;;;;;;;;;;;;;;5060804;28;20072;-69
2023/04/16 06:14:57;;;;;;;29.00;12.23;;;;;;;;;;5087669;28;19955;-69
2023/04/16 06:17:23;;;;;;;32.63;13.25;;;;;;;;;;5037378;28;20036;-69
2023/04/16 06:19:49;;;;;;;26.48;12.55;;;;;;;;;;5069919;28;20486;-69
2023/04/16 06:22:15;;;;;;;22.05;10.80;;;;;;;;;;5069437;28;20143;-69
2023/04/16 06:24:41;;;;;;;26.05;11.82;;;;;;;;;;5070027;28;20181;-69
2023/04/16 06:27:07;;;;;;;28.88;12.73;;;;;;;;;;5070711;28;20036;-69
2023/04/16 06:29:33;;;;;;;25.83;11.52;;;;;;;;;;5069670;28;20033;-69
2023/04/16 06:32:00;;;;;;;27.02;12.15;;;;;;;;;;5072190;28;20099;-69
2023/04/16 06:34:28;;;;;;;35.13;13.10;;;;;;;;;;5060762;28;20483;-69
2023/04/16 06:36:54;;;;;;;36.53;13.88;;;;;;;;;;5053308;28;20036;-69
2023/04/16 06:39:23;;;;;;;30.75;13.25;;;;;;;;;;5066173;28;20382;-70
2023/04/16 06:41:49;;;;;;;29.35;12.23;;;;;;;;;;5072606;28;20070;-69
2023/04/16 06:44:15;;;;;;;27.38;13.02;;;;;;;;;;5070900;28;20071;-69
2023/04/16 06:46:41;;;;;;;34.20;13.05;;;;;;;;;;5053401;28;20110;-69
2023/04/16 06:49:07;;;;;;;30.52;12.40;;;;;;;;;;5067811;28;20040;-69
2023/04/16 06:51:33;;;;;;;30.48;12.15;;;;;;;;;;5095222;28;20156;-71
2023/04/16 06:53:59;;;;;;;23.55;9.93;;;;;;;;;;5064421;28;20055;-69
2023/04/16 06:56:25;;;;;;;22.80;10.60;;;;;;;;;;5059470;28;20743;-70
2023/04/16 06:58:52;;;;;;;23.52;10.60;;;;;;;;;;5070007;28;20124;-70
2023/04/16 07:01:18;;;;;;;19.17;9.95;;;;;;;;;;5059781;28;20044;-71
2023/04/16 07:03:44;;;;;;;29.85;12.57;;;;;;;;;;5053506;28;20455;-69
2023/04/16 07:06:10;;;;;;;22.10;11.15;;;;;;;;;;5053093;28;20127;-70
2023/04/16 07:08:36;;;;;;;;;;;;;;;;;;5066071;28;20032;-69
2023/04/16 07:11:02;;;;;;;38.92;13.57;;;;;;;;;;5068517;28;20283;-69
2023/04/16 07:13:28;;;;;;;32.65;13.65;;;;;;;;;;5066297;28;20053;-69
2023/04/16 07:15:54;;;;;;;30.00;12.00;;;;;;;;;;5064381;28;20373;-70
2023/04/16 07:18:20;;;;;;;26.98;12.35;;;;;;;;;;5069237;28;20112;-69
2023/04/16 07:20:47;;;;;;;24.15;12.52;;;;;;;;;;5068527;28;20040;-69
2023/04/16 07:23:13;;;;;;;21.20;10.93;;;;;;;;;;5066469;28;20036;-69
2023/04/16 07:25:40;;;;;;;19.38;9.32;;;;;;;;;;5060530;28;20405;-69
2023/04/16 07:28:06;;;;;;;25.33;11.77;;;;;;;;;;5067756;28;20044;-69
2023/04/16 07:30:33;;;;;;;28.85;10.82;;;;;;;;;;5067467;28;20420;-69
2023/04/16 07:33:03;;;;;;;23.70;10.10;;;;;;;;;;5059868;28;20045;-69
2023/04/16 07:35:30;;;;;;;22.75;10.52;;;;;;;;;;5056852;28;20040;-69
2023/04/16 07:37:56;;;;;;;26.45;10.45;;;;;;;;;;5073509;28;20074;-69
2023/04/16 07:40:22;;;;;;;25.70;10.43;;;;;;;;;;5052165;28;20395;-69
2023/04/16 07:42:48;;;;;;;21.90;10.43;;;;;;;;;;5100367;28;20037;-69
2023/04/16 07:45:14;;;;;;;24.20;10.60;;;;;;;;;;5079574;28;20040;-69
2023/04/16 07:47:41;;;;;;;25.08;11.23;;;;;;;;;;5068173;28;20051;-70
2023/04/16 07:50:07;;;;;;;24.67;11.65;;;;;;;;;;5067929;28;20110;-70
2023/04/16 07:52:33;;;;;;;23.08;10.55;;;;;;;;;;5068876;28;20071;-70
2023/04/16 07:54:59;;;;;;;20.63;8.95;;;;;;;;;;5068150;28;20044;-70
2023/04/16 07:57:25;;;;;;;18.13;8.15;;;;;;;;;;5050103;28;20102;-70
2023/04/16 07:59:51;;;;;;;20.80;9.52;;;;;;;;;;5101921;28;20051;-70
2023/04/16 08:02:17;;;;;;;16.98;7.93;;;;;;;;;;5067256;28;20048;-70
2023/04/16 08:04:43;;;;;;;12.20;6.30;;;;;;;;;;5065491;28;20048;-70
2023/04/16 08:07:09;;;;;;;14.90;6.43;;;;;;;;;;5067358;28;20514;-70
2023/04/16 08:09:35;;;;;;;12.05;6.40;;;;;;;;;;5065486;28;20044;-70
2023/04/16 08:12:02;;;;;;;21.23;8.63;;;;;;;;;;5061369;28;20078;-70
2023/04/16 08:14:28;;;;;;;;;;;;;;;;;;5069453;28;20044;-70
2023/04/16 08:16:54;;;;;;;16.73;8.50;;;;;;;;;;5067360;28;20301;-70
2023/04/16 08:19:20;;;;;;;25.27;9.50;;;;;;;;;;5051330;28;20040;-70
2023/04/16 08:21:46;;;;;;;22.92;9.27;;;;;;;;;;5065132;28;20051;-70
2023/04/16 08:24:12;;;;;;;;;;;;;;;;;;5051496;28;20198;-70
2023/04/16 08:26:38;;;;;;;21.40;9.70;;;;;;;;;;5066958;28;20405;-69
2023/04/16 08:29:04;;;;;;;22.23;9.60;;;;;;;;;;5049985;28;20528;-70
2023/04/16 08:31:31;;;;;;;17.02;9.23;;;;;;;;;;5051880;28;20060;-70
2023/04/16 08:33:57;;;;;;;;;;;;;;;;;;5068699;28;20113;-70
2023/04/16 08:36:23;;;;;;;20.48;10.55;;;;;;;;;;5068332;28;19920;-69
2023/04/16 08:38:51;;;;;;;20.67;10.43;;;;;;;;;;5064775;28;20488;-70
2023/04/16 08:41:17;;;;;;;17.80;9.27;;;;;;;;;;5068481;28;20075;-70
2023/04/16 08:43:44;;;;;;;21.75;9.93;;;;;;;;;;5068139;28;20048;-70
2023/04/16 08:46:11;;;;;;;20.23;10.35;;;;;;;;;;5054594;28;20083;-70
2023/04/16 08:48:37;;;;;;;24.38;10.48;;;;;;;;;;5056531;28;20081;-70
2023/04/16 08:51:06;;;;;;;19.65;9.98;;;;;;;;;;5066742;28;20048;-70
2023/04/16 08:53:38;;;;;;;19.00;9.65;;;;;;;;;;5075496;28;20128;-70
2023/04/16 08:56:05;;;;;;;16.13;8.80;;;;;;;;;;5074874;28;20123;-70
2023/04/16 08:58:33;;;;;;;17.20;9.00;;;;;;;;;;5051856;28;20040;-70
2023/04/16 09:01:00;;;;;;;18.63;8.95;;;;;;;;;;5065192;28;20067;-70
2023/04/16 09:03:27;;;;;;;11.73;7.45;;;;;;;;;;5067171;28;20044;-70
2023/04/16 09:05:56;;;;;;;18.08;8.00;;;;;;;;;;5100461;28;20143;-70
2023/04/16 09:08:22;;;;;;;18.55;9.45;;;;;;;;;;5066649;28;20593;-70
2023/04/16 09:10:48;;;;;;;;;;;;;;;;;;5067156;28;20040;-70
2023/04/16 09:13:16;;;;;;;23.80;10.90;;;;;;;;;;5065172;28;20572;-71
2023/04/16 09:15:43;;;;;;;17.85;9.57;;;;;;;;;;5066042;28;20143;-70
2023/04/16 09:18:10;;;;;;;17.27;9.88;;;;;;;;;;5068971;28;20040;-70
2023/04/16 09:20:37;;;;;;;18.65;9.50;;;;;;;;;;5067322;28;20072;-70
2023/04/16 09:23:03;;;;;;;17.13;9.27;;;;;;;;;;5068801;28;20044;-70
2023/04/16 09:25:33;;;;;;;14.77;8.18;;;;;;;;;;5068801;28;20033;-70
2023/04/16 09:27:59;;;;;;;19.13;9.32;;;;;;;;;;5068227;28;20132;-70
2023/04/16 09:30:26;;;;;;;20.52;11.13;;;;;;;;;;5067955;28;20051;-70
2023/04/16 09:32:53;;;;;;;17.65;9.35;;;;;;;;;;5051430;28;20041;-70
2023/04/16 09:35:19;;;;;;;16.13;8.35;;;;;;;;;;5048433;28;20068;-70
2023/04/16 09:37:54;;;;;;;16.23;8.60;;;;;;;;;;5064067;28;20033;-70
2023/04/16 09:40:25;;;;;;;19.80;9.82;;;;;;;;;;5066186;28;20040;-70
2023/04/16 09:42:52;;;;;;;12.70;8.32;;;;;;;;;;5082324;28;20153;-70
2023/04/16 09:45:18;;;;;;;13.20;7.38;;;;;;;;;;5051806;28;20391;-70
2023/04/16 09:47:45;;;;;;;18.17;9.40;;;;;;;;;;5066096;28;20028;-70
2023/04/16 09:50:18;;;;;;;13.30;7.97;;;;;;;;;;5067638;28;20140;-70
2023/04/16 09:52:44;;;;;;;11.77;7.32;;;;;;;;;;5070351;28;20110;-70
2023/04/16 09:55:11;;;;;;;13.85;7.80;;;;;;;;;;5064334;28;20132;-70
2023/04/16 09:57:37;;;;;;;;;;;;;;;;;;5064260;28;20044;-70
2023/04/16 10:00:07;;;;;;;11.95;6.10;;;;;;;;;;5054849;28;19927;-70
2023/04/16 10:02:34;;;;;;;14.15;7.70;;;;;;;;;;5068667;28;20468;-70
2023/04/16 10:05:01;;;;;;;14.77;8.32;;;;;;;;;;5071260;28;20433;-70
2023/04/16 10:07:28;;;;;;;26.67;10.25;;;;;;;;;;5079420;28;20044;-70
2023/04/16 10:09:54;;;;;;;21.90;11.43;;;;;;;;;;5065134;28;20047;-70
2023/04/16 10:12:21;;;;;;;17.05;9.35;;;;;;;;;;5070226;28;20049;-70
2023/04/16 10:14:47;;;;;;;20.45;9.68;;;;;;;;;;5069971;28;20041;-70
2023/04/16 10:17:13;;;;;;;16.42;9.40;;;;;;;;;;5070553;28;20662;-70
2023/04/16 10:19:40;;;;;;;15.85;8.63;;;;;;;;;;5067716;28;20054;-70
2023/04/16 10:22:06;;;;;;;18.10;9.13;;;;;;;;;;5068365;28;20055;-70
2023/04/16 10:24:32;;;;;;;23.48;9.75;;;;;;;;;;5067947;28;20043;-70
2023/04/16 10:26:59;;;;;;;19.30;9.55;;;;;;;;;;5052097;28;20040;-70
2023/04/16 10:29:26;;;;;;;16.73;8.77;;;;;;;;;;5068328;28;20087;-70
2023/04/16 10:31:53;;;;;;;17.75;9.77;;;;;;;;;;5051785;28;20105;-70
2023/04/16 10:34:20;;;;;;;19.77;9.10;;;;;;;;;;5066899;28;20079;-70
2023/04/16 10:36:51;;;;;;;15.35;8.13;;;;;;;;;;5102197;28;20488;-70
2023/04/16 10:39:18;;;;;;;19.92;9.77;;;;;;;;;;5067099;28;20440;-70
2023/04/16 10:41:44;;;;;;;20.08;10.32;;;;;;;;;;5069052;28;20116;-70
2023/04/16 10:44:10;;;;;;;;;;;;;;;;;;5067248;28;20052;-70
2023/04/16 10:46:37;;;;;;;22.48;10.52;;;;;;;;;;5067523;28;19920;-70
2023/04/16 10:49:39;;;;;;;19.08;9.85;;;;;;;;;;5069016;28;20066;-72
2023/04/16 10:52:10;;;;;;;17.13;10.32;;;;;;;;;;5062671;28;20385;-70
2023/04/16 10:54:37;;;;;;;18.42;9.65;;;;;;;;;;5093832;28;20506;-71
2023/04/16 10:57:03;;;;;;;;;;;;;;;;;;5067687;28;20412;-70
2023/04/16 10:59:33;;;;;;;21.55;10.88;;;;;;;;;;5067068;28;19916;-70
2023/04/16 11:02:00;;;;;;;16.92;9.68;;;;;;;;;;5098874;28;20178;-70
2023/04/16 11:04:28;;;;;;;17.15;9.27;;;;;;;;;;5069689;28;20036;-70
2023/04/16 11:07:03;;;;;;;18.38;10.82;;;;;;;;;;5065029;28;20044;-70
2023/04/16 11:09:48;;;;;;;20.25;10.43;;;;;;;;;;5066089;28;20038;-70
2023/04/16 11:12:15;;;;;;;21.50;10.40;;;;;;;;;;5070145;28;20424;-70
2023/04/16 11:14:42;;;;;;;22.13;10.77;;;;;;;;;;5067670;28;20059;-70
2023/04/16 11:17:08;;;;;;;17.58;10.02;;;;;;;;;;5065119;28;20165;-70
2023/04/16 11:19:37;;;;;;;25.35;11.35;;;;;;;;;;5065787;28;20056;-70
2023/04/16 11:22:04;;;;;;;17.83;10.27;;;;;;;;;;5094131;28;20051;-70
2023/04/16 11:24:33;;;;;;;16.95;10.50;;;;;;;;;;5067660;28;20045;-70
2023/04/16 11:27:00;;;;;;;22.67;11.25;;;;;;;;;;5067656;28;20040;-70
2023/04/16 11:29:26;;;;;;;19.60;10.60;;;;;;;;;;5066262;28;20036;-70
2023/04/16 11:31:53;;;;;;;18.80;9.98;;;;;;;;;;5051588;28;20047;-70
2023/04/16 11:34:20;;;;;;;18.27;10.00;;;;;;;;;;5069403;28;20146;-70
2023/04/16 11:36:47;;;;;;;19.63;10.43;;;;;;;;;;5056958;28;20124;-70
2023/04/16 11:39:13;;;;;;;18.17;9.80;;;;;;;;;;5067066;28;20102;-70
2023/04/16 11:41:49;;;;;;;20.45;10.43;;;;;;;;;;5068818;28;20052;-70
2023/04/16 11:44:20;;;;;;;19.63;9.90;;;;;;;;;;5051651;28;20667;-70
2023/04/16 11:46:46;;;;;;;15.65;10.00;;;;;;;;;;5060590;28;20044;-70
2023/04/16 11:49:12;;;;;;;13.75;8.82;;;;;;;;;;5069412;28;20037;-70
2023/04/16 11:51:39;;;;;;;14.63;9.43;;;;;;;;;;5052556;28;20052;-70
2023/04/16 11:54:06;;;;;;;19.88;10.55;;;;;;;;;;5069397;28;20089;-70
2023/04/16 11:56:34;;;;;;;18.40;10.65;;;;;;;;;;5052698;28;20040;-70
2023/04/16 11:59:13;;;;;;;21.10;11.30;;;;;;;;;;5043056;28;20045;-70
2023/04/16 12:01:40;;;;;;;21.13;11.50;;;;;;;;;;5052844;28;20048;-70
2023/04/16 12:04:06;;;;;;;22.92;11.10;;;;;;;;;;5069345;28;20037;-70
2023/04/16 12:06:32;;;;;;;23.23;11.73;;;;;;;;;;5069450;28;20143;-70
2023/04/16 12:08:58;;;;;;;;;;;;;;;;;;5069456;28;20043;-70
2023/04/16 12:11:40;;;;;;;20.73;12.20;;;;;;;;;;5070483;28;19916;-70
2023/04/16 12:14:07;;;;;;;16.88;9.38;;;;;;;;;;5048809;28;20223;-70
2023/04/16 12:16:33;;;;;;;15.45;9.43;;;;;;;;;;5049285;28;20037;-70
2023/04/16 12:19:00;;;;;;;;;;;;;;;;;;5046870;28;20499;-70
2023/04/16 12:21:35;;;;;;;17.05;10.27;;;;;;;;;;5094935;28;19924;-70
2023/04/16 12:24:01;;;;;;;18.33;10.18;;;;;;;;;;5068896;28;20083;-70
2023/04/16 12:26:28;;;;;;;23.58;10.98;;;;;;;;;;5068871;28;20048;-70
2023/04/16 12:28:54;;;;;;;22.58;11.10;;;;;;;;;;5068774;28;20051;-70
2023/04/16 12:31:35;;;;;;;22.02;10.18;;;;;;;;;;5059116;28;20048;-70
2023/04/16 12:34:02;;;;;;;19.48;10.60;;;;;;;;;;5066920;28;20044;-70
2023/04/16 12:36:28;;;;;;;21.67;11.15;;;;;;;;;;5067547;28;20055;-71
2023/04/16 12:38:54;;;;;;;17.27;10.38;;;;;;;;;;5050086;28;20047;-71
2023/04/16 12:41:20;;;;;;;;;;;;;;;;;;5067522;28;20040;-71
2023/04/16 12:43:46;;;;;;;17.05;10.15;;;;;;;;;;5066375;28;19920;-71
2023/04/16 12:46:12;;;;;;;14.77;10.10;;;;;;;;;;5065073;28;20193;-72
2023/04/16 12:48:38;;;;;;;16.83;10.13;;;;;;;;;;5068096;28;20048;-71
2023/04/16 12:51:06;;;;;;;18.85;11.70;;;;;;;;;;5068033;28;20044;-71
2023/04/16 12:53:32;;;;;;;18.63;10.93;;;;;;;;;;5069922;28;20062;-71
2023/04/16 12:55:58;;;;;;;;;;;;;;;;;;5069513;28;20075;-71
2023/04/16 12:58:24;;;;;;;18.77;10.32;;;;;;;;;;5065606;28;19920;-71
2023/04/16 13:00:50;;;;;;;22.02;10.98;;;;;;;;;;5100032;28;20119;-71
2023/04/16 13:03:16;;;;;;;20.85;11.13;;;;;;;;;;5068122;28;20048;-71
2023/04/16 13:05:42;;;;;;;15.10;9.77;;;;;;;;;;5071535;28;20040;-71
2023/04/16 13:08:08;;;;;;;15.40;9.60;;;;;;;;;;5064312;28;20044;-72
2023/04/16 13:10:34;;;;;;;16.75;9.60;;;;;;;;;;5067482;28;20037;-71
2023/04/16 13:13:00;;;;;;;;;;;;;;;;;;5068345;28;20447;-72
2023/04/16 13:15:26;;;;;;;18.98;10.30;;;;;;;;;;5066043;28;19921;-69
2023/04/16 13:17:53;;;;;;;16.45;10.55;;;;;;;;;;5050155;28;20128;-70
2023/04/16 13:20:19;;;;;;;16.55;9.55;;;;;;;;;;5067001;28;20080;-70
2023/04/16 13:22:45;;;;;;;;;;;;;;;;;;5051481;28;20144;-70
2023/04/16 13:25:11;;;;;;;13.40;7.50;;;;;;;;;;5065243;28;20015;-70
2023/04/16 13:27:37;;;;;;;13.15;8.15;;;;;;;;;;5071011;28;20032;-70
2023/04/16 13:30:03;;;;;;;13.40;7.63;;;;;;;;;;5068773;28;20028;-70
2023/04/16 13:32:29;;;;;;;;;;;;;;;;;;5053351;28;20371;-71
2023/04/16 13:34:55;;;;;;;18.55;10.73;;;;;;;;;;5071593;28;19917;-70
2023/04/16 13:37:21;;;;;;;12.75;8.85;;;;;;;;;;5053870;28;20050;-70
2023/04/16 13:39:47;;;;;;;21.08;11.70;;;;;;;;;;5071899;28;20051;-70
2023/04/16 13:42:13;;;;;;;17.00;9.75;;;;;;;;;;5072797;28;20454;-70
2023/04/16 13:44:39;;;;;;;;;;;;;;;;;;5075725;28;20051;-70
2023/04/16 13:47:05;;;;;;;18.10;10.07;;;;;;;;;;5077595;28;20375;-70
2023/04/16 13:49:33;;;;;;;19.80;9.95;;;;;;;;;;5072277;28;20554;-70
2023/04/16 13:51:59;;;;;;;14.60;10.20;;;;;;;;;;5065321;28;20075;-71
2023/04/16 13:54:25;;;;;;;20.40;9.48;;;;;;;;;;5052601;28;20125;-71
2023/04/16 13:56:52;;;;;;;17.77;10.32;;;;;;;;;;5056808;28;20040;-71
2023/04/16 13:59:19;;;;;;;17.17;9.90;;;;;;;;;;5055043;28;20495;-71
2023/04/16 14:01:45;;;;;;;18.23;9.73;;;;;;;;;;5071681;28;20041;-71
2023/04/16 14:04:11;;;;;;;17.08;9.88;;;;;;;;;;5071885;28;20385;-71
2023/04/16 14:06:37;;;;;;;13.25;8.50;;;;;;;;;;5071553;28;20044;-71
2023/04/16 14:09:03;;;;;;;15.60;8.88;;;;;;;;;;5071425;28;20037;-71
2023/04/16 14:11:29;;;;;;;;;;;;;;;;;;5071866;28;20108;-71
2023/04/16 14:13:55;;;;;;;18.73;9.93;;;;;;;;;;5104493;28;19916;-70
2023/04/16 14:16:21;;;;;;;17.88;9.50;;;;;;;;;;5071168;28;20048;-71
2023/04/16 14:18:47;;;;;;;;;;;;;;;;;;5080805;28;20089;-71
2023/04/16 14:21:13;;;;;;;14.75;9.35;;;;;;;;;;5054456;28;19924;-70
2023/04/16 14:23:40;;;;;;;15.20;8.05;;;;;;;;;;5052604;28;20040;-70
2023/04/16 14:26:06;;;;;;;17.98;9.38;;;;;;;;;;5068874;28;20040;-71
2023/04/16 14:28:32;;;;;;;13.40;9.02;;;;;;;;;;5069689;28;20056;-71
2023/04/16 14:30:58;;;;;;;17.63;10.93;;;;;;;;;;5053857;28;20036;-72